Airfield :
LOGIN :

Register | Disclaimer

   EN    FR    IT 

 










Legend :    VFR   Marginal VFR   IFR   Intensive IFR   Very Intensive IFR
Visi :
Ceiling :
>= 8 km
>= 3000ft
5 to 8 km
1000 to 3000 ft
1500m to 5 km
500 to 1000 ft
800 to 1500m
200 to 500 ft
< 800m
< 200 ft
Symbols :   Thunderstorms  Fog  Heavy snow  Heavy precipitations  Wind > 20 kt
SIGMETs :     Misc.  Thunderstorms  Icing  Turbulence  Mountain Waves  Volcanic Ashes







- Airport Elevation : 1411 ft
- IATA code : SZG


LOWS - Salzburg

CURRENT METAR :
  • 182250Z AUTO 15004KT 120V180 9999 FEW005 BKN110 16/15 Q1022

EXPIRED METARs :
  • 182220Z AUTO 14006KT 9999 -SHRA FEW048 BKN100 16/14 Q1022
  • 182150Z AUTO 16009KT 9999 -SHRA //////CB FEW040 BKN100 16/15 Q1022
  • 182120Z AUTO 17010KT 9000 SHRA //////CB FEW020 BKN050 16/15 Q1022
  • 182050Z 23011KT 200V260 8000 SHRA VCTS FEW018 SCT040CB BKN060 16/14 Q1022 BECMG -SHRA
  • 182020Z VRB04KT 6000 SHRA VCTS FEW018 SCT050CB BKN060 17/14 Q1022 BECMG -SHRA

TAF TAF LOWS
Valid from the 18 at 18:00 until the 19 at 18:00 UTC


181715Z 1818/1918 15005KT 9999 SCT050 BKN120 TX24/1914Z TN16/1905Z
TEMPO 1818/1906 29008KT SHRA FEW040TCU BKN050
PROB40
TEMPO 1818/1824 29015G30KT 4000 TSRA SCT030CB BKN040
BECMG 1908/1910 33005KT SCT060 SCT100
PROB40
TEMPO 1910/1913 32010G20KT SHRA FEW050CB BKN080
BECMG 1916/1918 15005KT CAVOK
No reported NOTAMs for that airfield.



MET'MAP, your aeronautical weather chart ! - Copyright ORBIFLY December 2007 - Disclaimer

ORBIFLY MET'MAP TEAM :

Programming & Development : Alexandra Zaïnal
Concept & Development : Baudouin d'Aumeries
Co-Development & Prog : Marc-Olivier Méhu
Technical & hardware support : Manuel Goepfert

Contact : metmap@orbifly.com




SOURCES & CREDITS :

   NOAA